createdAt,value
2024-02-03T00:00:20.539Z,101395.19
2024-02-03T00:02:47.660Z,101391.97
2024-02-03T00:05:14.672Z,101390.09
2024-02-03T00:07:41.721Z,101385.94
2024-02-03T00:10:09.059Z,101388.22
2024-02-03T00:12:36.506Z,101382.16
2024-02-03T00:15:03.657Z,101391.13
2024-02-03T00:17:31.041Z,101378.56
2024-02-03T00:19:58.110Z,101392.56
2024-02-03T00:22:25.135Z,101381.50
2024-02-03T00:24:52.231Z,101383.88
2024-02-03T00:27:19.390Z,101384.53
2024-02-03T00:29:46.381Z,101378.75
2024-02-03T00:32:13.321Z,101381.59
2024-02-03T00:34:42.136Z,101373.91
2024-02-03T00:37:09.206Z,101373.53
2024-02-03T00:39:36.300Z,101376.50
2024-02-03T00:42:03.616Z,101378.63
2024-02-03T00:44:30.946Z,101373.28
2024-02-03T00:46:58.011Z,101372.91
2024-02-03T00:49:25.225Z,101370.63
2024-02-03T00:51:52.504Z,101370.03
2024-02-03T00:54:19.887Z,101373.44
2024-02-03T00:56:46.836Z,101365.06
2024-02-03T00:59:13.935Z,101364.41
2024-02-03T01:01:41.030Z,101368.38
2024-02-03T01:04:08.093Z,101356.09
2024-02-03T01:06:35.287Z,101348.50
2024-02-03T01:09:02.390Z,101351.38
2024-02-03T01:11:29.434Z,101356.25
2024-02-03T01:13:56.502Z,101352.84
2024-02-03T01:16:23.809Z,101343.13
2024-02-03T01:18:51.365Z,101348.44
2024-02-03T01:21:19.546Z,101338.50
2024-02-03T01:23:46.575Z,101340.00
2024-02-03T01:26:13.749Z,101337.63
2024-02-03T01:28:41.233Z,101336.19
2024-02-03T01:31:10.122Z,101338.63
2024-02-03T01:33:37.272Z,101337.28
2024-02-03T01:36:04.925Z,101343.19
2024-02-03T01:38:32.216Z,101351.66
2024-02-03T01:40:59.373Z,101336.44
2024-02-03T01:43:26.495Z,101337.72
2024-02-03T01:45:53.686Z,101340.25
2024-02-03T01:48:21.214Z,101341.97
2024-02-03T01:50:51.505Z,101339.72
2024-02-03T01:53:19.766Z,101341.28
2024-02-03T01:55:47.773Z,101341.06
2024-02-03T01:58:14.877Z,101336.31
2024-02-03T02:00:42.093Z,101324.78
2024-02-03T02:03:09.256Z,101336.44
2024-02-03T02:05:37.839Z,101330.22
2024-02-03T02:08:05.214Z,101317.63
2024-02-03T02:10:32.604Z,101328.78
2024-02-03T02:12:59.743Z,101332.19
2024-02-03T02:15:26.790Z,101321.81
2024-02-03T02:18:01.210Z,101310.19
2024-02-03T02:20:28.619Z,101320.66
2024-02-03T02:22:55.744Z,101309.25
2024-02-03T02:25:23.043Z,101309.16
2024-02-03T02:27:54.231Z,101297.91
2024-02-03T02:30:22.113Z,101299.63
2024-02-03T02:32:49.574Z,101304.69
2024-02-03T02:35:16.725Z,101299.59
2024-02-03T02:37:43.841Z,101303.19
2024-02-03T02:40:12.684Z,101303.00
2024-02-03T02:42:40.169Z,101304.03
2024-02-03T02:45:07.610Z,101307.97
2024-02-03T02:47:34.710Z,101305.31
2024-02-03T02:50:01.779Z,101309.13
2024-02-03T02:52:28.934Z,101307.44
2024-02-03T02:54:57.728Z,101308.06
2024-02-03T02:57:24.886Z,101320.09
2024-02-03T02:59:51.845Z,101312.38
2024-02-03T03:02:18.961Z,101310.28
2024-02-03T03:04:46.068Z,101309.53
2024-02-03T03:07:16.316Z,101311.41
2024-02-03T03:09:43.895Z,101301.97
2024-02-03T03:12:11.437Z,101290.25
2024-02-03T03:14:38.953Z,101287.53
2024-02-03T03:17:06.190Z,101294.09
2024-02-03T03:19:38.335Z,101292.84
2024-02-03T03:22:07.197Z,101291.38
2024-02-03T03:24:34.430Z,101292.25
2024-02-03T03:27:01.734Z,101283.75
2024-02-03T03:29:28.827Z,101280.06
2024-02-03T03:31:55.760Z,101281.84
2024-02-03T03:34:23.073Z,101280.75
2024-02-03T03:36:50.659Z,101273.91
2024-02-03T03:39:17.595Z,101271.25
2024-02-03T03:41:44.541Z,101274.75
2024-02-03T03:44:12.139Z,101276.94
2024-02-03T03:46:39.881Z,101268.50
2024-02-03T03:49:07.149Z,101270.41
2024-02-03T03:51:34.367Z,101279.09
2024-02-03T03:54:01.413Z,101278.19
2024-02-03T03:56:28.441Z,101282.31
2024-02-03T03:58:55.498Z,101281.94
2024-02-03T04:01:22.610Z,101281.03
2024-02-03T04:03:49.797Z,101276.28
2024-02-03T04:06:17.031Z,101273.13
2024-02-03T04:08:44.208Z,101287.41
2024-02-03T04:11:11.394Z,101279.13
2024-02-03T04:13:40.553Z,101282.00
2024-02-03T04:16:07.853Z,101283.28
2024-02-03T04:18:34.985Z,101286.34
2024-02-03T04:21:02.453Z,101277.22
2024-02-03T04:23:29.466Z,101280.81
2024-02-03T04:25:57.306Z,101278.00
2024-02-03T04:28:24.287Z,101281.72
2024-02-03T04:30:51.470Z,101268.31
2024-02-03T04:33:18.715Z,101281.09
2024-02-03T04:35:45.724Z,101264.22
2024-02-03T04:38:12.716Z,101261.84
2024-02-03T04:40:39.759Z,101258.25
2024-02-03T04:43:25.691Z,101253.34
2024-02-03T04:45:52.953Z,101255.28
2024-02-03T04:48:20.206Z,101247.69
2024-02-03T04:50:47.476Z,101256.88
2024-02-03T04:53:14.555Z,101261.84
2024-02-03T04:55:42.865Z,101255.81
2024-02-03T04:58:09.943Z,101249.56
2024-02-03T05:00:36.946Z,101263.84
2024-02-03T05:03:04.119Z,101267.72
2024-02-03T05:05:31.071Z,101263.59
2024-02-03T05:07:58.138Z,101262.25
2024-02-03T05:10:25.146Z,101249.56
2024-02-03T05:12:52.104Z,101242.69
2024-02-03T05:15:19.994Z,101253.75
2024-02-03T05:17:47.231Z,101242.75
2024-02-03T05:20:14.383Z,101229.38
2024-02-03T05:22:42.394Z,101226.03
2024-02-03T05:25:12.156Z,101224.47
2024-02-03T05:27:39.409Z,101221.81
2024-02-03T05:30:07.297Z,101226.69
2024-02-03T05:32:34.627Z,101229.00
2024-02-03T05:35:01.606Z,101237.88
2024-02-03T05:37:28.662Z,101223.94
2024-02-03T05:39:55.734Z,101234.53
2024-02-03T05:42:24.035Z,101231.50
2024-02-03T05:44:51.158Z,101238.09
2024-02-03T05:47:18.179Z,101245.28
2024-02-03T05:49:45.307Z,101237.75
2024-02-03T05:52:12.422Z,101228.31
2024-02-03T05:54:39.512Z,101242.00
2024-02-03T05:57:09.257Z,101231.13
2024-02-03T05:59:41.604Z,101229.81
2024-02-03T06:02:15.579Z,101236.47
2024-02-03T06:04:42.880Z,101229.22
2024-02-03T06:07:10.169Z,101244.53
2024-02-03T06:09:37.210Z,101241.47
2024-02-03T06:12:05.426Z,101246.34
2024-02-03T06:14:33.417Z,101245.69
2024-02-03T06:17:00.470Z,101229.16
2024-02-03T06:19:27.530Z,101237.63
2024-02-03T06:21:54.569Z,101237.31
2024-02-03T06:24:21.666Z,101224.59
2024-02-03T06:26:48.620Z,101228.53
2024-02-03T06:29:15.653Z,101231.38
2024-02-03T06:31:42.594Z,101220.22
2024-02-03T06:34:09.683Z,101219.75
2024-02-03T06:36:37.011Z,101232.88
2024-02-03T06:39:05.119Z,101217.03
2024-02-03T06:41:32.321Z,101213.66
2024-02-03T06:43:59.259Z,101209.19
2024-02-03T06:46:26.343Z,101214.09
2024-02-03T06:48:53.699Z,101214.50
2024-02-03T06:51:21.020Z,101220.34
2024-02-03T06:53:48.177Z,101211.75
2024-02-03T06:56:15.234Z,101212.19
2024-02-03T06:58:42.318Z,101197.06
2024-02-03T07:01:09.479Z,101191.13
2024-02-03T07:03:36.686Z,101198.66
2024-02-03T07:06:03.924Z,101188.50
2024-02-03T07:08:31.506Z,101185.44
2024-02-03T07:10:58.526Z,101187.22
2024-02-03T07:13:26.665Z,101191.66
2024-02-03T07:15:53.661Z,101198.63
2024-02-03T07:18:21.331Z,101178.06
2024-02-03T07:20:48.726Z,101179.13
2024-02-03T07:23:15.719Z,101168.03
2024-02-03T07:25:42.909Z,101173.84
2024-02-03T07:28:09.945Z,101172.81
2024-02-03T07:30:37.020Z,101156.34
2024-02-03T07:33:05.877Z,101159.63
2024-02-03T07:35:33.132Z,101163.69
2024-02-03T07:38:00.297Z,101163.25
2024-02-03T07:40:27.288Z,101160.16
2024-02-03T07:42:54.416Z,101181.50
2024-02-03T07:45:21.725Z,101173.66
2024-02-03T07:47:48.869Z,101159.47
2024-02-03T07:50:16.196Z,101175.66
2024-02-03T07:52:43.224Z,101154.56
2024-02-03T07:55:10.228Z,101164.50
2024-02-03T07:57:37.280Z,101158.00
2024-02-03T08:00:04.640Z,101163.47
2024-02-03T08:02:32.118Z,101161.03
2024-02-03T08:04:59.222Z,101148.03
2024-02-03T08:07:26.272Z,101146.72
2024-02-03T08:09:53.267Z,101167.38
2024-02-03T08:12:20.480Z,101133.19
2024-02-03T08:14:47.450Z,101150.06
2024-02-03T08:17:14.398Z,101149.53
2024-02-03T08:19:41.576Z,101145.88
2024-02-03T08:22:08.781Z,101144.31
2024-02-03T08:24:36.194Z,101124.91
2024-02-03T08:27:03.269Z,101138.75
2024-02-03T08:29:30.327Z,101141.00
2024-02-03T08:31:57.325Z,101136.22
2024-02-03T08:34:24.476Z,101144.91
2024-02-03T08:36:51.738Z,101154.47
2024-02-03T08:41:48.833Z,101135.75
2024-02-03T08:44:15.969Z,101121.97
2024-02-03T08:46:43.338Z,101142.91
2024-02-03T08:49:10.430Z,101133.56
2024-02-03T08:51:39.461Z,101145.34
2024-02-03T08:54:07.866Z,101127.28
2024-02-03T08:56:34.875Z,101127.28
2024-02-03T08:59:01.929Z,101117.31
2024-02-03T09:01:29.103Z,101115.25
2024-02-03T09:03:56.294Z,101111.41
2024-02-03T09:06:23.334Z,101114.22
2024-02-03T09:08:50.491Z,101110.97
2024-02-03T09:11:17.606Z,101094.09
2024-02-03T09:13:45.100Z,101095.50
2024-02-03T09:16:12.290Z,101102.03
2024-02-03T09:18:39.836Z,101103.47
2024-02-03T09:21:11.491Z,101091.94
2024-02-03T09:23:39.541Z,101099.53
2024-02-03T09:26:10.081Z,101095.44
2024-02-03T09:28:37.606Z,101086.03
2024-02-03T09:31:06.631Z,101080.72
2024-02-03T09:33:34.179Z,101074.81
2024-02-03T09:36:05.553Z,101061.69
2024-02-03T09:38:32.611Z,101064.69
2024-02-03T09:41:00.390Z,101065.38
2024-02-03T09:43:27.659Z,101058.75
2024-02-03T09:45:55.582Z,101058.19
2024-02-03T09:48:25.580Z,101056.72
2024-02-03T09:50:52.891Z,101059.84
2024-02-03T09:53:19.954Z,101059.00
2024-02-03T09:55:47.336Z,101047.75
2024-02-03T09:58:33.960Z,101049.47
2024-02-03T10:01:02.361Z,101061.31
2024-02-03T10:03:29.729Z,101040.31
2024-02-03T10:06:02.625Z,101029.47
2024-02-03T10:08:30.866Z,101027.66
2024-02-03T10:10:58.359Z,101010.28
2024-02-03T10:13:25.816Z,101018.13
2024-02-03T10:16:04.314Z,101008.13
2024-02-03T10:18:36.049Z,101001.25
2024-02-03T10:21:04.758Z,100984.97
2024-02-03T10:23:31.907Z,100995.69
2024-02-03T10:26:00.293Z,100992.94
2024-02-03T10:28:27.776Z,100995.47
2024-02-03T10:31:01.955Z,101004.97
2024-02-03T10:33:29.511Z,101002.19
2024-02-03T10:35:58.314Z,101001.22
2024-02-03T10:38:26.103Z,100995.44
2024-02-03T10:40:54.594Z,100994.44
2024-02-03T10:43:23.072Z,100992.69
2024-02-03T10:46:02.095Z,100974.06
2024-02-03T10:48:30.228Z,100969.44
2024-02-03T10:51:10.457Z,100952.19
2024-02-03T10:53:48.607Z,100954.19
2024-02-03T10:56:18.558Z,100939.38
2024-02-03T10:58:46.097Z,100922.44
2024-02-03T11:01:19.044Z,100928.00
2024-02-03T11:03:50.580Z,100919.88
2024-02-03T11:06:34.198Z,100899.41
2024-02-03T11:09:17.267Z,100904.97
2024-02-03T11:11:52.235Z,100896.91
2024-02-03T11:14:22.450Z,100893.47
2024-02-03T11:17:02.219Z,100882.38
2024-02-03T11:19:33.232Z,100876.34
2024-02-03T11:22:03.928Z,100872.09
2024-02-03T11:24:32.255Z,100872.00
2024-02-03T11:27:09.757Z,100866.81
2024-02-03T11:29:38.203Z,100855.34
2024-02-03T11:32:08.145Z,100851.72
2024-02-03T11:34:38.822Z,100867.84
2024-02-03T11:37:07.826Z,100849.28
2024-02-03T11:39:36.167Z,100855.13
2024-02-03T11:42:09.122Z,100848.97
2024-02-03T11:44:48.618Z,100827.75
2024-02-03T11:47:20.308Z,100824.00
2024-02-03T11:49:48.221Z,100817.84
2024-02-03T11:52:15.912Z,100811.50
2024-02-03T11:54:43.080Z,100815.72
2024-02-03T11:57:10.552Z,100808.47
2024-02-03T11:59:37.776Z,100799.50
2024-02-03T12:02:07.909Z,100801.03
2024-02-03T12:04:35.340Z,100783.97
2024-02-03T12:07:03.012Z,100782.94
2024-02-03T12:09:31.047Z,100783.72
2024-02-03T12:12:00.241Z,100778.31
2024-02-03T12:14:29.578Z,100784.03
2024-02-03T12:16:58.726Z,100777.69
2024-02-03T12:19:27.456Z,100774.63
2024-02-03T12:21:56.515Z,100779.50
2024-02-03T12:24:24.170Z,100778.91
2024-02-03T12:26:51.329Z,100784.09
2024-02-03T12:29:18.705Z,100780.28
2024-02-03T12:31:45.742Z,100777.19
2024-02-03T12:34:13.715Z,100766.28
2024-02-03T12:36:40.856Z,100770.72
2024-02-03T12:39:10.139Z,100754.19
2024-02-03T12:41:37.638Z,100757.81
2024-02-03T12:44:05.205Z,100744.19
2024-02-03T12:46:32.384Z,100732.31
2024-02-03T12:48:59.671Z,100744.41
2024-02-03T12:51:30.186Z,100762.53
2024-02-03T12:53:59.389Z,100731.22
2024-02-03T12:56:26.694Z,100731.84
2024-02-03T12:58:53.963Z,100735.47
2024-02-03T13:01:21.269Z,100733.53
2024-02-03T13:03:48.657Z,100724.31
2024-02-03T13:06:16.862Z,100731.41
2024-02-03T13:08:45.405Z,100733.22
2024-02-03T13:11:16.539Z,100733.13
2024-02-03T13:13:45.414Z,100721.91
2024-02-03T13:16:12.985Z,100718.50
2024-02-03T13:18:40.363Z,100711.72
2024-02-03T13:21:07.453Z,100701.03
2024-02-03T13:23:37.056Z,100698.72
2024-02-03T13:26:05.998Z,100681.53
2024-02-03T13:28:33.505Z,100675.09
2024-02-03T13:31:00.878Z,100705.44
2024-02-03T13:33:28.478Z,100675.59
2024-02-03T13:35:55.839Z,100678.03
2024-02-03T13:38:23.618Z,100664.50
2024-02-03T13:40:50.603Z,100661.75
2024-02-03T13:43:17.890Z,100659.44
2024-02-03T13:45:45.228Z,100667.66
2024-02-03T13:48:12.807Z,100649.59
2024-02-03T13:50:40.237Z,100658.94
2024-02-03T13:53:09.158Z,100661.50
2024-02-03T13:55:36.874Z,100658.84
2024-02-03T13:58:06.880Z,100660.56
2024-02-03T14:00:36.200Z,100663.63
2024-02-03T14:03:03.606Z,100665.88
2024-02-03T14:05:31.169Z,100650.81
2024-02-03T14:07:58.559Z,100632.47
2024-02-03T14:10:25.636Z,100624.13
2024-02-03T14:12:53.554Z,100648.16
2024-02-03T14:15:20.752Z,100638.84
2024-02-03T14:17:47.938Z,100601.94
2024-02-03T14:20:15.354Z,100617.41
2024-02-03T14:22:43.574Z,100613.97
2024-02-03T14:25:11.642Z,100606.56
2024-02-03T14:27:39.132Z,100614.50
2024-02-03T14:30:08.350Z,100593.53
2024-02-03T14:32:36.370Z,100590.41
2024-02-03T14:35:04.439Z,100573.94
2024-02-03T14:37:32.074Z,100580.19
2024-02-03T14:39:59.349Z,100566.94
2024-02-03T14:42:26.353Z,100566.22
2024-02-03T14:44:53.471Z,100582.69
2024-02-03T14:47:20.764Z,100543.66
2024-02-03T14:49:48.193Z,100543.41
2024-02-03T14:52:15.464Z,100558.13
2024-02-03T14:54:43.354Z,100559.81
2024-02-03T14:57:10.444Z,100548.94
2024-02-03T14:59:37.804Z,100543.94
2024-02-03T15:02:05.187Z,100556.06
2024-02-03T15:04:32.478Z,100537.69
2024-02-03T15:07:01.619Z,100528.78
2024-02-03T15:09:29.226Z,100544.66
2024-02-03T15:11:56.592Z,100580.53
2024-02-03T15:14:23.960Z,100546.22
2024-02-03T15:16:51.053Z,100540.09
2024-02-03T15:19:18.518Z,100520.69
2024-02-03T15:21:46.259Z,100545.75
2024-02-03T15:24:13.704Z,100517.97
2024-02-03T15:26:42.291Z,100505.81
2024-02-03T15:29:09.384Z,100508.09
2024-02-03T15:31:36.481Z,100512.44
2024-02-03T15:34:04.250Z,100498.97
2024-02-03T15:36:31.487Z,100498.25
2024-02-03T15:38:58.696Z,100497.53
2024-02-03T15:41:25.871Z,100507.44
2024-02-03T15:43:53.530Z,100495.00
2024-02-03T15:46:30.273Z,100527.19
2024-02-03T15:49:03.773Z,100503.84
2024-02-03T15:51:31.070Z,100490.34
2024-02-03T15:53:58.098Z,100495.66
2024-02-03T15:56:25.237Z,100481.09
2024-02-03T15:58:52.552Z,100496.13
2024-02-03T16:01:19.858Z,100490.97
2024-02-03T16:03:47.363Z,100497.63
2024-02-03T16:06:15.009Z,100487.63
2024-02-03T16:08:44.357Z,100487.22
2024-02-03T16:11:12.046Z,100485.31
2024-02-03T16:13:42.296Z,100479.16
2024-02-03T16:16:11.110Z,100478.91
2024-02-03T16:18:38.460Z,100462.41
2024-02-03T16:21:06.017Z,100452.59
2024-02-03T16:23:33.416Z,100473.78
2024-02-03T16:26:03.612Z,100469.53
2024-02-03T16:28:32.327Z,100452.66
2024-02-03T16:30:59.920Z,100440.13
2024-02-03T16:33:28.851Z,100450.72
2024-02-03T16:35:57.604Z,100435.91
2024-02-03T16:38:25.784Z,100448.31
2024-02-03T16:40:53.422Z,100435.28
2024-02-03T16:43:20.556Z,100427.72
2024-02-03T16:45:47.565Z,100419.03
2024-02-03T16:48:14.704Z,100418.78
2024-02-03T16:50:41.799Z,100397.34
2024-02-03T16:53:08.808Z,100416.59
2024-02-03T16:55:36.688Z,100421.66
2024-02-03T16:58:04.065Z,100412.06
2024-02-03T17:00:34.762Z,100406.41
2024-02-03T17:03:01.896Z,100412.84
2024-02-03T17:05:29.107Z,100419.56
2024-02-03T17:07:56.174Z,100408.97
2024-02-03T17:10:23.432Z,100397.03
2024-02-03T17:12:50.518Z,100410.13
2024-02-03T17:15:17.654Z,100402.91
2024-02-03T17:17:44.828Z,100396.94
2024-02-03T17:20:12.614Z,100403.78
2024-02-03T17:22:39.749Z,100390.34
2024-02-03T17:25:07.154Z,100395.38
2024-02-03T17:27:34.395Z,100411.28
2024-02-03T17:30:01.458Z,100391.75
2024-02-03T17:32:30.208Z,100385.22
2024-02-03T17:34:58.090Z,100373.47
2024-02-03T17:37:25.893Z,100371.25
2024-02-03T17:39:52.964Z,100378.38
2024-02-03T17:42:20.086Z,100378.13
2024-02-03T17:44:47.139Z,100389.56
2024-02-03T17:47:14.299Z,100373.91
2024-02-03T17:49:41.501Z,100371.97
2024-02-03T17:52:10.869Z,100391.50
2024-02-03T17:54:41.477Z,100367.91
2024-02-03T17:57:08.671Z,100375.59
2024-02-03T17:59:38.879Z,100373.31
2024-02-03T18:02:06.162Z,100359.25
2024-02-03T18:04:33.286Z,100348.50
2024-02-03T18:07:00.793Z,100355.50
2024-02-03T18:09:28.158Z,100359.94
2024-02-03T18:11:55.667Z,100356.06
2024-02-03T18:14:24.328Z,100337.97
2024-02-03T18:16:51.517Z,100351.59
2024-02-03T18:19:18.657Z,100347.16
2024-02-03T18:21:45.897Z,100342.56
2024-02-03T18:24:13.029Z,100345.22
2024-02-03T18:26:40.174Z,100331.66
2024-02-03T18:29:07.413Z,100343.69
2024-02-03T18:31:35.347Z,100341.28
2024-02-03T18:34:02.508Z,100339.94
2024-02-03T18:36:30.185Z,100325.13
2024-02-03T18:38:57.382Z,100318.59
2024-02-03T18:41:24.430Z,100322.47
2024-02-03T18:43:51.430Z,100319.28
2024-02-03T18:46:18.761Z,100315.09
2024-02-03T18:48:47.077Z,100314.84
2024-02-03T18:51:14.248Z,100326.28
2024-02-03T18:53:41.274Z,100321.81
2024-02-03T18:56:08.385Z,100315.28
2024-02-03T18:58:35.391Z,100315.69
2024-02-03T19:01:04.292Z,100308.16
2024-02-03T19:03:31.908Z,100316.56
2024-02-03T19:05:59.080Z,100307.06
2024-02-03T19:08:28.303Z,100295.34
2024-02-03T19:10:55.683Z,100285.56
2024-02-03T19:13:24.041Z,100288.66
2024-02-03T19:15:51.519Z,100287.97
2024-02-03T19:18:19.553Z,100292.28
2024-02-03T19:20:47.409Z,100280.13
2024-02-03T19:23:14.438Z,100282.22
2024-02-03T19:25:41.728Z,100272.47
2024-02-03T19:28:09.153Z,100268.56
2024-02-03T19:30:36.248Z,100273.72
2024-02-03T19:33:03.936Z,100271.91
2024-02-03T19:35:31.322Z,100268.56
2024-02-03T19:38:02.153Z,100267.44
2024-02-03T19:40:30.209Z,100266.84
2024-02-03T19:42:57.698Z,100256.50
2024-02-03T19:45:26.276Z,100260.16
2024-02-03T19:47:53.629Z,100256.81
2024-02-03T19:50:24.022Z,100245.34
2024-02-03T19:52:52.975Z,100251.91
2024-02-03T19:55:20.575Z,100245.91
2024-02-03T19:57:48.984Z,100248.03
2024-02-03T20:00:17.366Z,100254.16
2024-02-03T20:02:44.616Z,100266.44
2024-02-03T20:05:11.784Z,100245.88
2024-02-03T20:07:39.215Z,100245.88
2024-02-03T20:10:07.290Z,100244.47
2024-02-03T20:12:34.585Z,100265.44
2024-02-03T20:15:01.670Z,100252.84
2024-02-03T20:17:28.932Z,100250.88
2024-02-03T20:19:56.604Z,100250.19
2024-02-03T20:22:24.220Z,100244.72
2024-02-03T20:24:51.401Z,100233.53
2024-02-03T20:27:18.843Z,100237.75
2024-02-03T20:29:45.855Z,100247.81
2024-02-03T20:32:13.016Z,100243.06
2024-02-03T20:34:44.184Z,100249.75
2024-02-03T20:37:11.541Z,100246.94
2024-02-03T20:39:39.006Z,100245.94
2024-02-03T20:42:06.436Z,100248.88
2024-02-03T20:44:33.485Z,100240.25
2024-02-03T20:47:00.643Z,100242.91
2024-02-03T20:49:30.298Z,100237.59
2024-02-03T20:51:57.576Z,100247.06
2024-02-03T20:54:24.952Z,100255.75
2024-02-03T20:56:52.379Z,100240.34
2024-02-03T20:59:19.397Z,100247.91
2024-02-03T21:01:46.684Z,100236.16
2024-02-03T21:04:14.315Z,100243.56
2024-02-03T21:06:41.972Z,100231.41
2024-02-03T21:09:10.127Z,100235.47
2024-02-03T21:11:46.763Z,100241.31
2024-02-03T21:14:15.370Z,100237.66
2024-02-03T21:16:42.676Z,100243.66
2024-02-03T21:19:10.046Z,100224.22
2024-02-03T21:21:42.757Z,100232.63
2024-02-03T21:24:10.225Z,100234.00
2024-02-03T21:26:37.319Z,100225.63
2024-02-03T21:29:04.851Z,100228.97
2024-02-03T21:31:33.619Z,100229.53
2024-02-03T21:34:02.057Z,100228.09
2024-02-03T21:36:29.623Z,100235.41
2024-02-03T21:38:57.197Z,100225.56
2024-02-03T21:41:24.439Z,100223.28
2024-02-03T21:43:53.320Z,100210.44
2024-02-03T21:46:20.744Z,100210.53
2024-02-03T21:48:49.917Z,100209.16
2024-02-03T21:51:20.339Z,100214.00
2024-02-03T21:53:47.420Z,100206.44
2024-02-03T21:56:15.828Z,100195.22
2024-02-03T21:58:43.338Z,100213.66
2024-02-03T22:01:11.444Z,100205.88
2024-02-03T22:03:39.466Z,100209.19
2024-02-03T22:06:09.444Z,100207.22
2024-02-03T22:08:37.022Z,100202.97
2024-02-03T22:11:04.328Z,100206.34
2024-02-03T22:13:31.709Z,100210.66
2024-02-03T22:15:59.052Z,100200.69
2024-02-03T22:18:26.439Z,100201.78
2024-02-03T22:20:53.672Z,100202.91
2024-02-03T22:23:21.038Z,100197.75
2024-02-03T22:25:48.068Z,100193.81
2024-02-03T22:28:15.696Z,100195.88
2024-02-03T22:30:43.448Z,100178.53
2024-02-03T22:33:10.690Z,100186.91
2024-02-03T22:35:39.054Z,100176.56
2024-02-03T22:38:06.082Z,100184.91
2024-02-03T22:40:33.325Z,100178.41
2024-02-03T22:43:00.571Z,100171.69
2024-02-03T22:45:27.676Z,100171.59
2024-02-03T22:47:55.008Z,100170.78
2024-02-03T22:50:22.333Z,100166.81
2024-02-03T22:52:49.569Z,100159.81
2024-02-03T22:55:16.623Z,100158.84
2024-02-03T22:57:43.759Z,100150.41
2024-02-03T23:00:49.727Z,100155.03
2024-02-03T23:03:18.281Z,100155.56
2024-02-03T23:05:45.602Z,100146.59
2024-02-03T23:08:12.948Z,100159.13
2024-02-03T23:10:40.571Z,100154.34
2024-02-03T23:13:08.440Z,100156.31
2024-02-03T23:15:35.625Z,100154.94
2024-02-03T23:18:02.634Z,100145.97
2024-02-03T23:20:30.743Z,100147.88
2024-02-03T23:22:57.749Z,100162.66
2024-02-03T23:25:26.597Z,100146.66
2024-02-03T23:27:54.026Z,100163.34
2024-02-03T23:30:21.227Z,100156.00
2024-02-03T23:32:48.545Z,100154.69
2024-02-03T23:35:15.744Z,100152.03
2024-02-03T23:37:42.655Z,100159.78
2024-02-03T23:40:11.045Z,100175.75
2024-02-03T23:42:38.456Z,100156.97
2024-02-03T23:45:06.081Z,100147.81
2024-02-03T23:47:33.520Z,100169.78
2024-02-03T23:50:01.424Z,100165.31
2024-02-03T23:52:28.549Z,100168.44
2024-02-03T23:54:56.151Z,100159.13
2024-02-03T23:57:23.323Z,100166.38
2024-02-03T23:59:51.092Z,100167.97
